createdAt,value
2022-08-24T00:02:53.008Z,6.50
2022-08-24T00:04:47.102Z,6.40
2022-08-24T00:09:57.134Z,7.10
2022-08-24T00:11:26.114Z,7.20
2022-08-24T00:13:16.814Z,7.20
2022-08-24T00:17:08.656Z,7.40
2022-08-24T00:22:23.743Z,8.60
2022-08-24T00:25:19.485Z,9.00
2022-08-24T00:28:25.212Z,8.70
2022-08-24T00:30:11.819Z,9.00
2022-08-24T00:35:54.489Z,8.40
2022-08-24T00:46:26.771Z,8.80
2022-08-24T00:52:05.209Z,9.60
2022-08-24T00:58:03.746Z,10.00
2022-08-24T01:00:02.595Z,9.50
2022-08-24T01:01:37.050Z,9.10
2022-08-24T01:03:25.552Z,9.70
2022-08-24T01:08:15.362Z,8.90
2022-08-24T01:11:14.153Z,8.40
2022-08-24T01:15:07.818Z,8.40
2022-08-24T01:20:02.476Z,8.90
2022-08-24T01:21:05.293Z,9.20
2022-08-24T01:22:04.027Z,9.40
2022-08-24T01:25:50.629Z,9.40
2022-08-24T01:35:52.240Z,9.80
2022-08-24T01:39:46.302Z,9.50
2022-08-24T01:42:23.224Z,10.80
2022-08-24T01:49:17.321Z,9.00
2022-08-24T01:53:24.901Z,9.80
2022-08-24T02:01:49.661Z,10.50
2022-08-24T02:04:22.165Z,10.90
2022-08-24T02:06:12.519Z,10.30
2022-08-24T02:08:02.705Z,11.20
2022-08-24T02:11:31.673Z,11.50
2022-08-24T02:15:36.549Z,11.20
2022-08-24T02:17:09.605Z,11.10
2022-08-24T02:19:06.285Z,11.70
2022-08-24T02:23:12.823Z,12.10
2022-08-24T02:27:53.185Z,11.70
2022-08-24T02:30:12.206Z,12.70
2022-08-24T02:32:39.377Z,11.50
2022-08-24T02:34:22.796Z,12.90
2022-08-24T02:38:54.532Z,12.40
2022-08-24T02:42:23.876Z,13.30
2022-08-24T02:50:06.460Z,15.60
2022-08-24T02:55:05.988Z,15.60
2022-08-24T03:01:43.004Z,14.70
2022-08-24T03:03:10.354Z,14.40
2022-08-24T03:08:46.445Z,15.60
2022-08-24T03:12:02.672Z,16.60
2022-08-24T03:19:12.173Z,17.10
2022-08-24T03:22:20.515Z,16.90
2022-08-24T03:25:51.653Z,17.20
2022-08-24T03:27:32.882Z,18.20
2022-08-24T03:32:06.855Z,19.00
2022-08-24T03:35:11.944Z,19.10
2022-08-24T03:40:32.579Z,19.90
2022-08-24T03:44:52.761Z,19.50
2022-08-24T03:46:37.331Z,19.50
2022-08-24T03:48:43.549Z,19.20
2022-08-24T03:50:36.992Z,18.10
2022-08-24T03:52:19.619Z,19.70
2022-08-24T03:54:03.489Z,19.20
2022-08-24T03:56:21.333Z,19.60
2022-08-24T04:00:38.985Z,20.60
2022-08-24T04:07:21.091Z,21.10
2022-08-24T04:10:50.614Z,21.40
2022-08-24T04:12:44.854Z,21.80
2022-08-24T04:18:41.229Z,22.00
2022-08-24T04:24:04.888Z,21.70
2022-08-24T04:33:20.618Z,21.30
2022-08-24T04:39:56.997Z,21.50
2022-08-24T04:42:15.357Z,21.30
2022-08-24T04:44:32.728Z,23.10
2022-08-24T04:46:21.834Z,21.90
2022-08-24T04:47:51.517Z,22.80
2022-08-24T04:49:42.217Z,22.60
2022-08-24T04:51:14.066Z,22.70
2022-08-24T04:53:29.967Z,24.00
2022-08-24T04:55:49.084Z,22.70
2022-08-24T04:57:39.618Z,21.60
2022-08-24T04:59:29.438Z,22.40
2022-08-24T05:01:17.686Z,22.50
2022-08-24T05:06:04.907Z,21.30
2022-08-24T05:07:35.810Z,22.80
2022-08-24T05:18:19.247Z,21.10
2022-08-24T05:24:44.400Z,19.70
2022-08-24T05:29:26.588Z,20.40
2022-08-24T05:33:11.708Z,18.60
2022-08-24T05:36:01.193Z,18.50
2022-08-24T05:38:45.827Z,18.90
2022-08-24T05:41:17.237Z,20.20
2022-08-24T05:43:07.718Z,18.90
2022-08-24T05:44:57.635Z,18.50
2022-08-24T05:47:25.754Z,20.10
2022-08-24T05:55:29.031Z,17.80
2022-08-24T05:57:28.916Z,19.80
2022-08-24T06:01:25.441Z,20.30
2022-08-24T06:06:36.117Z,22.40
2022-08-24T06:08:41.663Z,21.80
2022-08-24T06:10:33.231Z,21.80
2022-08-24T06:12:07.436Z,22.50
2022-08-24T06:14:29.765Z,21.40
2022-08-24T06:17:45.612Z,22.30
2022-08-24T06:19:45.328Z,22.00
2022-08-24T06:25:32.211Z,20.90
2022-08-24T06:28:06.457Z,24.50
2022-08-24T06:37:05.005Z,21.20
2022-08-24T06:41:20.773Z,23.20
2022-08-24T06:45:48.826Z,21.30
2022-08-24T06:57:20.544Z,20.10
2022-08-24T06:58:49.567Z,23.10
2022-08-24T07:09:29.255Z,22.10
2022-08-24T07:10:57.886Z,19.20
2022-08-24T07:12:30.443Z,20.00
2022-08-24T07:14:57.036Z,18.20
2022-08-24T07:18:07.361Z,21.30
2022-08-24T07:22:23.275Z,18.10
2022-08-24T07:23:53.145Z,17.40
2022-08-24T07:27:22.162Z,17.10
2022-08-24T07:35:02.725Z,15.20
2022-08-24T07:37:40.714Z,14.90
2022-08-24T07:39:00.749Z,15.30
2022-08-24T07:41:33.724Z,15.20
2022-08-24T07:46:36.227Z,14.00
2022-08-24T07:48:05.414Z,13.40
2022-08-24T07:49:39.563Z,11.90
2022-08-24T07:51:04.067Z,11.30
2022-08-24T07:53:43.768Z,12.20
2022-08-24T07:56:04.487Z,10.70
2022-08-24T07:58:59.916Z,11.50
2022-08-24T08:03:24.287Z,10.10
2022-08-24T08:05:22.093Z,8.90
2022-08-24T08:06:50.999Z,8.10
2022-08-24T08:08:20.214Z,7.20
2022-08-24T08:10:20.196Z,7.50
2022-08-24T08:14:42.869Z,6.90
2022-08-24T08:16:43.583Z,7.40
2022-08-24T08:19:40.319Z,5.90
2022-08-24T08:22:58.910Z,5.00
2022-08-24T08:24:27.854Z,5.30
2022-08-24T08:25:56.735Z,5.40
2022-08-24T08:27:26.623Z,5.40
2022-08-24T08:28:56.520Z,5.30
2022-08-24T08:31:43.233Z,3.60
2022-08-24T08:37:32.756Z,3.80
2022-08-24T08:43:57.045Z,3.10
2022-08-24T08:45:55.801Z,2.60
2022-08-24T08:48:06.912Z,2.80
2022-08-24T08:49:35.797Z,2.70
2022-08-24T08:51:34.586Z,2.70
2022-08-24T08:53:03.779Z,2.50
2022-08-24T08:57:30.846Z,2.20
2022-08-24T08:58:59.668Z,1.60
2022-08-24T09:01:17.345Z,2.40
2022-08-24T09:03:46.059Z,2.20
2022-08-24T09:05:14.952Z,1.90
2022-08-24T09:10:06.505Z,1.70
2022-08-24T09:12:04.450Z,2.00
2022-08-24T09:15:01.109Z,1.90
2022-08-24T09:18:55.813Z,2.00
2022-08-24T09:23:20.487Z,1.90
2022-08-24T09:24:50.395Z,1.60
2022-08-24T09:27:50.187Z,2.70
2022-08-24T09:29:18.556Z,2.50
2022-08-24T09:32:16.358Z,1.50
2022-08-24T09:34:32.463Z,1.90
2022-08-24T09:36:01.476Z,1.70
2022-08-24T09:38:28.334Z,1.60
2022-08-24T09:39:57.282Z,2.00
2022-08-24T09:42:53.912Z,1.50
2022-08-24T09:45:41.899Z,1.60
2022-08-24T09:50:20.230Z,1.20
2022-08-24T09:53:45.038Z,1.70
2022-08-24T09:56:02.680Z,2.50
2022-08-24T09:58:29.596Z,1.90
2022-08-24T10:01:55.443Z,2.30
2022-08-24T10:05:03.391Z,2.00
2022-08-24T10:07:53.158Z,1.80
2022-08-24T10:09:10.456Z,1.50
2022-08-24T10:11:39.193Z,2.30
2022-08-24T10:14:16.915Z,2.00
2022-08-24T10:16:06.634Z,1.90
2022-08-24T10:19:04.399Z,1.70
2022-08-24T10:20:33.219Z,2.20
2022-08-24T10:22:02.115Z,2.30
2022-08-24T10:23:32.485Z,1.90
2022-08-24T10:25:12.217Z,1.40
2022-08-24T10:29:18.041Z,1.30
2022-08-24T10:30:47.942Z,1.50
2022-08-24T10:36:30.397Z,1.90
2022-08-24T10:42:52.043Z,1.70
2022-08-24T10:44:50.400Z,1.40
2022-08-24T10:46:20.323Z,1.40
2022-08-24T10:49:36.176Z,1.40
2022-08-24T10:54:28.777Z,0.90
2022-08-24T10:59:57.321Z,1.00
2022-08-24T11:02:28.124Z,1.30
2022-08-24T11:05:24.038Z,1.20
2022-08-24T11:08:20.463Z,1.00
2022-08-24T11:10:17.918Z,1.30
2022-08-24T11:12:15.748Z,1.20
2022-08-24T11:13:48.286Z,1.00
2022-08-24T11:16:23.289Z,1.00
2022-08-24T11:17:54.370Z,1.10
2022-08-24T11:19:22.047Z,1.20
2022-08-24T11:21:12.676Z,0.90
2022-08-24T11:23:08.796Z,1.30
2022-08-24T11:24:41.149Z,1.40
2022-08-24T11:26:29.963Z,1.10
2022-08-24T11:29:05.356Z,1.20
2022-08-24T11:30:34.085Z,0.90
2022-08-24T11:33:20.657Z,1.20
2022-08-24T11:35:40.312Z,0.90
2022-08-24T11:37:10.294Z,1.00
2022-08-24T11:40:00.388Z,1.20
2022-08-24T11:41:31.783Z,1.10
2022-08-24T11:43:22.410Z,1.20
2022-08-24T11:45:20.305Z,0.90
2022-08-24T11:47:21.587Z,1.10
2022-08-24T11:49:41.313Z,0.90
2022-08-24T11:51:37.223Z,0.70
2022-08-24T12:00:35.042Z,1.20
2022-08-24T12:02:03.707Z,1.50
2022-08-24T12:05:45.544Z,1.10
2022-08-24T12:09:02.265Z,1.20
2022-08-24T12:12:00.791Z,1.50
2022-08-24T12:16:15.617Z,1.20
2022-08-24T12:17:44.599Z,1.20
2022-08-24T12:21:12.995Z,1.20
2022-08-24T12:24:22.683Z,1.30
2022-08-24T12:27:20.293Z,1.20
2022-08-24T12:28:54.295Z,1.10
2022-08-24T12:34:09.676Z,1.00
2022-08-24T12:39:34.796Z,1.40
2022-08-24T12:41:24.749Z,1.50
2022-08-24T12:44:48.246Z,1.10
2022-08-24T12:46:35.169Z,1.00
2022-08-24T12:50:08.982Z,1.50
2022-08-24T12:56:09.600Z,1.20
2022-08-24T12:58:40.646Z,1.10
2022-08-24T13:06:14.645Z,1.20
2022-08-24T13:09:15.293Z,1.30
2022-08-24T13:12:15.031Z,1.10
2022-08-24T13:17:42.214Z,1.10
2022-08-24T13:25:56.854Z,1.80
2022-08-24T13:28:25.725Z,1.30
2022-08-24T13:29:53.720Z,1.10
2022-08-24T13:32:11.781Z,1.10
2022-08-24T13:34:11.281Z,1.10
2022-08-24T13:36:37.670Z,1.50
2022-08-24T13:48:04.894Z,2.20
2022-08-24T13:50:33.608Z,1.20
2022-08-24T13:55:18.395Z,1.80
2022-08-24T13:59:15.114Z,1.10
2022-08-24T14:00:44.029Z,5.10
2022-08-24T14:03:13.007Z,1.20
2022-08-24T14:06:37.874Z,1.10
2022-08-24T14:11:22.532Z,1.10
2022-08-24T14:14:18.279Z,1.20
2022-08-24T14:16:37.120Z,1.20
2022-08-24T14:19:33.409Z,1.40
2022-08-24T14:22:21.453Z,1.00
2022-08-24T14:23:54.765Z,1.40
2022-08-24T14:25:44.579Z,1.20
2022-08-24T14:27:42.441Z,1.00
2022-08-24T14:29:11.044Z,1.00
2022-08-24T14:30:40.502Z,1.30
2022-08-24T14:32:12.720Z,1.60
2022-08-24T14:34:16.580Z,1.30
2022-08-24T14:36:01.121Z,1.00
2022-08-24T14:38:18.764Z,1.20
2022-08-24T14:41:14.531Z,1.30
2022-08-24T14:46:55.984Z,1.30
2022-08-24T14:50:13.624Z,1.00
2022-08-24T14:52:12.734Z,1.30
2022-08-24T15:01:20.408Z,1.70
2022-08-24T15:03:08.827Z,1.50
2022-08-24T15:08:48.655Z,5.10
2022-08-24T15:10:48.542Z,1.90
2022-08-24T15:12:16.112Z,6.30
2022-08-24T15:14:22.413Z,1.40
2022-08-24T15:16:21.555Z,1.20
2022-08-24T15:20:11.984Z,1.20
2022-08-24T15:24:08.015Z,1.80
2022-08-24T15:26:04.818Z,1.60
2022-08-24T15:28:35.899Z,1.40
2022-08-24T15:32:22.706Z,1.50
2022-08-24T15:34:43.096Z,1.20
2022-08-24T15:36:13.201Z,1.40
2022-08-24T15:38:44.139Z,1.60
2022-08-24T15:40:15.020Z,1.10
2022-08-24T15:42:15.219Z,1.20
2022-08-24T15:43:45.961Z,1.70
2022-08-24T15:45:14.118Z,1.30
2022-08-24T15:48:34.481Z,1.30
2022-08-24T15:51:37.503Z,1.60
2022-08-24T15:53:25.105Z,1.70
2022-08-24T15:57:32.419Z,1.90
2022-08-24T16:00:09.271Z,2.60
2022-08-24T16:04:21.171Z,1.60
2022-08-24T16:08:47.961Z,2.10
2022-08-24T16:10:53.824Z,1.30
2022-08-24T16:16:05.883Z,1.60
2022-08-24T16:18:53.953Z,1.80
2022-08-24T16:23:03.443Z,1.70
2022-08-24T16:25:24.502Z,3.20
2022-08-24T16:27:17.003Z,2.40
2022-08-24T16:29:36.232Z,2.00
2022-08-24T16:31:14.357Z,2.70
2022-08-24T16:32:45.551Z,1.80
2022-08-24T16:35:05.125Z,2.00
2022-08-24T16:38:23.921Z,16.30
2022-08-24T16:42:06.025Z,6.60
2022-08-24T16:45:23.791Z,2.40
2022-08-24T16:47:14.498Z,2.10
2022-08-24T16:49:31.837Z,1.90
2022-08-24T16:52:21.488Z,4.30
2022-08-24T16:54:19.780Z,7.10
2022-08-24T16:55:49.653Z,4.50
2022-08-24T16:58:23.600Z,4.10
2022-08-24T17:06:46.814Z,3.10
2022-08-24T17:12:44.241Z,2.60
2022-08-24T17:15:33.057Z,1.60
2022-08-24T17:17:02.983Z,1.70
2022-08-24T17:18:33.771Z,1.60
2022-08-24T17:21:53.167Z,2.20
2022-08-24T17:25:45.966Z,2.40
2022-08-24T17:28:49.251Z,5.10
2022-08-24T17:31:47.183Z,2.30
2022-08-24T17:33:47.099Z,2.20
2022-08-24T17:36:05.767Z,2.70
2022-08-24T17:37:35.631Z,1.60
2022-08-24T17:39:03.580Z,2.30
2022-08-24T17:44:33.256Z,2.20
2022-08-24T17:47:03.019Z,2.30
2022-08-24T17:49:49.608Z,2.90
2022-08-24T17:51:19.504Z,2.60
2022-08-24T17:52:50.483Z,1.80
2022-08-24T17:56:46.865Z,1.80
2022-08-24T17:58:43.081Z,2.00
2022-08-24T18:01:13.076Z,2.20
2022-08-24T18:11:33.269Z,1.50
2022-08-24T18:13:04.577Z,2.20
2022-08-24T18:16:42.972Z,2.50
2022-08-24T18:18:41.799Z,2.10
2022-08-24T18:20:10.725Z,2.80
2022-08-24T18:21:42.684Z,4.10
2022-08-24T18:24:02.375Z,5.10
2022-08-24T18:27:10.041Z,3.90
2022-08-24T18:29:03.063Z,3.50
2022-08-24T18:30:57.936Z,8.10
2022-08-24T18:35:43.850Z,4.50
2022-08-24T18:37:13.722Z,9.70
2022-08-24T18:40:23.390Z,6.10
2022-08-24T18:46:29.654Z,5.20
2022-08-24T18:50:24.134Z,6.10
2022-08-24T18:55:10.744Z,5.90
2022-08-24T19:01:57.023Z,7.90
2022-08-24T19:05:11.851Z,8.20
2022-08-24T19:09:10.115Z,12.80
2022-08-24T19:10:39.048Z,13.30
2022-08-24T19:12:08.892Z,13.20
2022-08-24T19:15:40.119Z,9.10
2022-08-24T19:18:56.673Z,6.60
2022-08-24T19:25:33.299Z,6.00
2022-08-24T19:28:28.172Z,7.00
2022-08-24T19:32:13.896Z,4.60
2022-08-24T19:36:22.852Z,3.40
2022-08-24T19:39:04.307Z,2.80
2022-08-24T19:40:56.614Z,2.80
2022-08-24T19:43:47.360Z,2.60
2022-08-24T19:45:20.077Z,2.50
2022-08-24T19:47:08.330Z,2.40
2022-08-24T19:52:06.435Z,2.50
2022-08-24T19:53:38.123Z,2.00
2022-08-24T20:00:48.209Z,2.10
2022-08-24T20:02:15.896Z,2.30
2022-08-24T20:09:27.075Z,2.20
2022-08-24T20:14:37.677Z,3.70
2022-08-24T20:16:07.313Z,3.40
2022-08-24T20:17:36.755Z,3.30
2022-08-24T20:21:30.164Z,2.30
2022-08-24T20:23:35.845Z,2.20
2022-08-24T20:26:36.371Z,2.40
2022-08-24T20:29:28.778Z,2.70
2022-08-24T20:34:51.134Z,2.70
2022-08-24T20:40:15.353Z,3.00
2022-08-24T20:41:47.147Z,3.50
2022-08-24T20:43:14.601Z,2.60
2022-08-24T20:47:15.410Z,2.90
2022-08-24T20:52:22.623Z,2.60
2022-08-24T20:54:23.573Z,2.60
2022-08-24T20:59:45.217Z,2.80
2022-08-24T21:01:45.252Z,2.30
2022-08-24T21:13:19.245Z,2.50
2022-08-24T21:17:11.257Z,2.30
2022-08-24T21:19:35.384Z,2.90
2022-08-24T21:21:04.781Z,2.70
2022-08-24T21:31:02.505Z,2.80
2022-08-24T21:37:44.237Z,2.60
2022-08-24T21:43:34.711Z,2.70
2022-08-24T21:48:07.027Z,2.60
2022-08-24T21:51:13.094Z,2.90
2022-08-24T21:52:51.272Z,3.10
2022-08-24T21:54:23.805Z,3.00
2022-08-24T21:56:17.490Z,2.90
2022-08-24T21:57:52.302Z,2.90
2022-08-24T22:00:29.708Z,2.70
2022-08-24T22:05:26.177Z,2.60
2022-08-24T22:07:26.633Z,2.90
2022-08-24T22:10:36.635Z,2.70
2022-08-24T22:12:38.789Z,2.80
2022-08-24T22:14:11.769Z,3.10
2022-08-24T22:18:21.655Z,2.80
2022-08-24T22:19:55.233Z,2.60
2022-08-24T22:22:24.756Z,2.40
2022-08-24T22:25:25.067Z,2.40
2022-08-24T22:30:25.999Z,2.30
2022-08-24T22:32:24.433Z,2.80
2022-08-24T22:34:42.764Z,2.80
2022-08-24T22:36:32.427Z,2.70
2022-08-24T22:39:49.538Z,2.70
2022-08-24T22:48:54.652Z,2.10
2022-08-24T22:50:23.575Z,2.90
2022-08-24T22:54:29.978Z,2.60
2022-08-24T22:57:19.954Z,2.60
2022-08-24T22:59:19.638Z,2.20
2022-08-24T23:02:08.410Z,2.00
2022-08-24T23:09:03.627Z,2.30
2022-08-24T23:14:17.321Z,2.10
2022-08-24T23:15:46.342Z,2.40
2022-08-24T23:19:12.049Z,2.20
2022-08-24T23:22:07.066Z,2.50
2022-08-24T23:25:54.132Z,2.30
2022-08-24T23:27:24.456Z,2.50
2022-08-24T23:28:55.944Z,2.10
2022-08-24T23:30:54.958Z,2.30
2022-08-24T23:34:26.236Z,1.90
2022-08-24T23:37:57.810Z,2.30
2022-08-24T23:52:30.660Z,2.50
2022-08-24T23:55:41.726Z,2.30
2022-08-24T23:57:08.900Z,1.80
